Time;durP1;ratioP1;P1;durP2;ratioP2;P2;SDS_P1;SDS_P2;PMS_P1;PMS_P2;Temp;Humidity;BMP_temperature;BMP_pressure;BME280_temperature;BME280_humidity;BME280_pressure;Samples;Min_cycle;Max_cycle;Signal;HPM_P1;HPM_P2
2022/03/01 06:13:38;;;;;;;3.00;2.80;;;-4.30;99.90;;;;;;6023161;23;20575;-70
2022/03/01 06:16:06;;;;;;;3.15;2.88;;;-4.30;99.90;;;;;;4995074;28;20202;-71
2022/03/01 06:18:33;;;;;;;2.83;2.63;;;-4.30;99.90;;;;;;4994842;28;20211;-71
2022/03/01 06:21:01;;;;;;;3.22;2.92;;;-4.20;99.90;;;;;;4995522;28;20206;-71
2022/03/01 06:23:28;;;;;;;2.60;2.50;;;-4.20;99.90;;;;;;4995491;28;20218;-71
2022/03/01 06:25:55;;;;;;;3.22;2.97;;;-4.10;99.90;;;;;;4994711;28;20709;-71
2022/03/01 06:28:22;;;;;;;3.17;2.88;;;-4.10;99.90;;;;;;4995061;28;20291;-71
2022/03/01 06:30:50;;;;;;;2.83;2.63;;;-4.00;99.90;;;;;;4994933;28;20207;-71
2022/03/01 06:33:18;;;;;;;2.78;2.67;;;-3.80;99.90;;;;;;4995118;28;20309;-70
2022/03/01 06:35:45;;;;;;;2.88;2.67;;;-3.50;99.90;;;;;;4995157;28;20305;-70
2022/03/01 06:38:11;;;;;;;3.83;2.97;;;-3.00;99.90;;;;;;4995354;28;20205;-70
2022/03/01 06:40:38;;;;;;;3.05;2.85;;;-2.30;99.90;;;;;;4995106;28;20289;-70
2022/03/01 06:43:05;;;;;;;3.15;2.92;;;-1.20;99.90;;;;;;4994918;28;20246;-70
2022/03/01 06:45:33;;;;;;;3.75;3.45;;;0.20;99.90;;;;;;4994370;28;20674;-70
2022/03/01 06:48:01;;;;;;;4.05;3.75;;;1.70;99.90;;;;;;4994629;28;20290;-68
2022/03/01 06:50:28;;;;;;;5.28;3.50;;;3.10;99.90;;;;;;4994622;28;20205;-69
2022/03/01 06:52:55;;;;;;;3.88;3.55;;;4.50;90.90;;;;;;4994541;28;20226;-69
2022/03/01 06:55:23;;;;;;;5.75;4.07;;;5.20;61.40;;;;;;4994098;28;20313;-69
2022/03/01 06:57:50;;;;;;;5.10;4.47;;;5.40;44.70;;;;;;4994420;28;20293;-69
2022/03/01 07:00:17;;;;;;;3.58;3.30;;;5.30;41.20;;;;;;4994777;28;20193;-70
2022/03/01 07:02:44;;;;;;;5.40;3.78;;;5.40;42.40;;;;;;4994726;28;20195;-69
2022/03/01 07:05:14;;;;;;;4.20;3.80;;;6.10;52.40;;;;;;4994306;28;20227;-69
2022/03/01 07:07:41;;;;;;;5.22;4.55;;;7.40;47.90;;;;;;4994499;28;20625;-69
2022/03/01 07:10:11;;;;;;;5.15;3.60;;;8.70;42.40;;;;;;4994187;28;20202;-69
2022/03/01 07:12:38;;;;;;;4.20;3.80;;;9.90;37.70;;;;;;4993827;28;20641;-69
2022/03/01 07:15:06;;;;;;;3.53;3.28;;;10.90;32.50;;;;;;4994106;28;20666;-69
2022/03/01 07:17:33;;;;;;;4.10;3.55;;;11.60;28.80;;;;;;4994338;28;20214;-69
2022/03/01 07:20:01;;;;;;;3.40;3.10;;;12.10;25.50;;;;;;4994224;28;20757;-69
2022/03/01 07:22:29;;;;;;;4.70;3.25;;;12.40;23.10;;;;;;4997110;28;20244;-69
2022/03/01 07:24:56;;;;;;;3.70;3.40;;;12.40;21.60;;;;;;5000641;28;20550;-69
2022/03/01 07:27:23;;;;;;;6.63;5.30;;;12.10;21.60;;;;;;5000794;28;20244;-70
2022/03/01 07:29:49;;;;;;;15.85;9.98;;;11.90;21.90;;;;;;5000430;28;20206;-70
2022/03/01 07:32:17;;;;;;;19.60;11.60;;;11.60;21.60;;;;;;5000533;28;20208;-70
2022/03/01 07:34:44;;;;;;;11.25;7.78;;;11.30;21.50;;;;;;5000135;28;20316;-70
2022/03/01 07:37:11;;;;;;;8.80;6.53;;;10.90;21.90;;;;;;5001850;28;20756;-69
2022/03/01 07:39:40;;;;;;;9.85;6.43;;;10.50;22.20;;;;;;5005409;28;20293;-70
2022/03/01 07:42:07;;;;;;;9.07;6.03;;;10.10;22.50;;;;;;5004949;28;20213;-70
2022/03/01 07:44:37;;;;;;;7.88;5.93;;;9.80;24.10;;;;;;5004477;28;20225;-71
2022/03/01 07:47:05;;;;;;;7.47;5.63;;;9.40;23.90;;;;;;5004991;28;20630;-70
2022/03/01 07:49:33;;;;;;;6.32;5.70;;;9.00;24.30;;;;;;5004909;28;20213;-70
2022/03/01 07:52:00;;;;;;;6.57;5.70;;;8.70;24.80;;;;;;5004115;28;20370;-70
2022/03/01 07:54:28;;;;;;;6.45;5.57;;;8.40;25.20;;;;;;5004845;28;20230;-69
2022/03/01 07:56:56;;;;;;;6.47;5.40;;;8.10;25.40;;;;;;5004231;28;20543;-70
2022/03/01 07:59:24;;;;;;;8.32;6.28;;;8.00;26.00;;;;;;5002886;28;20290;-71
2022/03/01 08:01:51;;;;;;;11.68;7.95;;;7.70;26.00;;;;;;5004326;28;20630;-70
2022/03/01 08:04:19;;;;;;;10.82;8.00;;;7.60;26.20;;;;;;5004753;28;20310;-70
2022/03/01 08:06:47;;;;;;;9.77;7.43;;;7.50;26.20;;;;;;5004398;28;20293;-70
2022/03/01 08:09:15;;;;;;;11.73;8.18;;;7.50;26.40;;;;;;5003573;28;20202;-71
2022/03/01 08:11:42;;;;;;;12.30;8.23;;;7.40;26.60;;;;;;5004555;28;20202;-70
2022/03/01 08:14:11;;;;;;;10.05;7.70;;;7.30;26.30;;;;;;5004339;28;20222;-70
2022/03/01 08:16:38;;;;;;;8.77;6.75;;;7.20;26.40;;;;;;5004176;28;20211;-70
2022/03/01 08:19:05;;;;;;;9.38;6.38;;;7.20;26.70;;;;;;5004745;28;20198;-70
2022/03/01 08:21:32;;;;;;;7.57;5.90;;;7.20;26.70;;;;;;5003750;28;20202;-69
2022/03/01 08:23:59;;;;;;;10.05;6.68;;;7.20;26.60;;;;;;5004193;28;20227;-70
2022/03/01 08:26:27;;;;;;;6.97;6.03;;;7.30;26.70;;;;;;5004373;28;20257;-69
2022/03/01 08:28:55;;;;;;;6.88;6.10;;;7.20;26.20;;;;;;5004354;28;20202;-69
2022/03/01 08:31:23;;;;;;;7.65;5.75;;;7.20;26.70;;;;;;5000244;28;20203;-70
2022/03/01 08:33:50;;;;;;;6.38;5.63;;;7.30;25.90;;;;;;4997787;28;20226;-70
2022/03/01 08:36:16;;;;;;;8.60;5.90;;;7.20;25.60;;;;;;4996986;28;20750;-70
2022/03/01 08:38:43;;;;;;;7.03;6.10;;;7.10;25.20;;;;;;4996818;28;20670;-70
2022/03/01 08:41:10;;;;;;;7.07;5.22;;;6.80;25.40;;;;;;4997317;28;20216;-69
2022/03/01 08:43:37;;;;;;;9.38;6.15;;;6.60;26.00;;;;;;4996937;28;20309;-69
2022/03/01 08:46:04;;;;;;;7.40;6.35;;;6.30;25.90;;;;;;4996985;28;20203;-70
2022/03/01 08:48:32;;;;;;;8.25;6.15;;;5.90;26.50;;;;;;4996870;28;20294;-69
2022/03/01 08:50:59;;;;;;;7.63;6.28;;;5.70;27.10;;;;;;4996532;28;20630;-70
2022/03/01 08:53:26;;;;;;;8.50;5.88;;;5.50;27.30;;;;;;4996727;28;20226;-70
2022/03/01 08:55:53;;;;;;;5.40;4.90;;;5.40;27.60;;;;;;4996753;28;20289;-69
2022/03/01 08:58:20;;;;;;;6.40;5.30;;;5.50;28.60;;;;;;4996971;28;20199;-69
2022/03/01 09:00:47;;;;;;;6.60;5.13;;;5.80;27.80;;;;;;4996648;28;20205;-70
2022/03/01 09:03:14;;;;;;;9.43;6.28;;;5.80;27.70;;;;;;4996090;28;20737;-70
2022/03/01 09:05:43;;;;;;;6.63;5.93;;;5.80;27.50;;;;;;4996762;28;20234;-69
2022/03/01 09:08:12;;;;;;;7.63;6.38;;;5.80;28.20;;;;;;4996444;28;20261;-70
2022/03/01 09:10:39;;;;;;;9.30;5.93;;;5.90;27.70;;;;;;4996191;28;20267;-70
2022/03/01 09:13:06;;;;;;;7.90;5.15;;;5.90;27.70;;;;;;4996159;28;20235;-70
2022/03/01 09:15:33;;;;;;;9.50;6.43;;;6.00;27.90;;;;;;4996060;28;20221;-70
2022/03/01 09:18:01;;;;;;;7.65;5.40;;;6.10;27.40;;;;;;4996143;28;20198;-70
2022/03/01 09:20:28;;;;;;;10.23;6.40;;;6.00;27.80;;;;;;4996094;28;20205;-69
2022/03/01 09:22:57;;;;;;;9.02;5.90;;;6.10;27.70;;;;;;4995992;28;20297;-69
2022/03/01 09:25:24;;;;;;;6.15;5.30;;;6.10;27.60;;;;;;4995577;28;20781;-69
2022/03/01 09:27:51;;;;;;;10.27;6.20;;;6.30;27.90;;;;;;4996288;28;20214;-69
2022/03/01 09:30:19;;;;;;;7.60;6.45;;;6.10;27.20;;;;;;4995671;28;20205;-69
2022/03/01 09:32:47;;;;;;;9.90;6.30;;;6.10;27.80;;;;;;4997986;28;20206;-70
2022/03/01 09:35:16;;;;;;;7.90;5.90;;;6.10;27.30;;;;;;4999048;28;20227;-70
2022/03/01 09:37:43;;;;;;;8.43;5.53;;;6.00;27.80;;;;;;4999072;28;20266;-70
2022/03/01 09:40:14;;;;;;;10.13;5.78;;;6.00;27.60;;;;;;4998587;28;20732;-70
2022/03/01 09:42:41;;;;;;;9.35;6.82;;;5.90;27.50;;;;;;4998909;28;20211;-71
2022/03/01 09:45:10;;;;;;;8.23;5.97;;;5.70;27.70;;;;;;4998774;28;20219;-71
2022/03/01 09:47:38;;;;;;;8.63;6.38;;;5.70;27.60;;;;;;4999262;28;20202;-71
2022/03/01 09:50:08;;;;;;;12.85;7.50;;;5.60;27.50;;;;;;4999028;28;20214;-71
2022/03/01 09:52:35;;;;;;;10.13;7.00;;;5.40;27.80;;;;;;4998837;28;20681;-72
2022/03/01 09:55:07;;;;;;;10.80;6.20;;;5.30;28.10;;;;;;4999488;28;20277;-71
2022/03/01 09:57:35;;;;;;;9.32;6.63;;;5.20;28.00;;;;;;4997422;28;20186;-71
2022/03/01 10:00:04;;;;;;;9.80;7.55;;;5.20;28.20;;;;;;4998224;28;20207;-70
2022/03/01 10:02:38;;;;;;;9.75;6.30;;;4.90;28.20;;;;;;4999483;28;20207;-68
2022/03/01 10:05:07;;;;;;;8.85;6.13;;;4.80;29.00;;;;;;4999797;28;20621;-68
2022/03/01 10:07:35;;;;;;;10.38;6.47;;;4.80;28.40;;;;;;4999667;28;20566;-69
2022/03/01 10:10:09;;;;;;;7.28;5.20;;;4.60;27.50;;;;;;4999547;28;20210;-71
2022/03/01 10:12:37;;;;;;;6.63;5.60;;;4.50;27.10;;;;;;4996013;28;20186;-71
2022/03/01 10:15:07;;;;;;;7.50;5.35;;;4.50;27.40;;;;;;4995166;28;20231;-71
2022/03/01 10:17:35;;;;;;;7.72;4.90;;;4.60;27.50;;;;;;4998927;28;20681;-70
2022/03/01 10:20:06;;;;;;;7.00;5.32;;;4.80;26.80;;;;;;4998906;28;20258;-71
2022/03/01 10:22:34;;;;;;;7.32;5.15;;;4.70;26.60;;;;;;4998342;28;20183;-71
2022/03/01 10:25:06;;;;;;;7.63;5.22;;;4.60;26.90;;;;;;4999201;28;20227;-71
2022/03/01 10:27:34;;;;;;;6.28;5.43;;;4.60;27.10;;;;;;4998954;28;20217;-70
2022/03/01 10:30:07;;;;;;;6.60;4.88;;;4.60;27.30;;;;;;4998878;28;20302;-70
2022/03/01 10:32:35;;;;;;;9.93;5.78;;;4.70;27.00;;;;;;4999202;28;20206;-70
2022/03/01 10:35:06;;;;;;;8.35;6.43;;;4.60;27.50;;;;;;4997929;28;20250;-70
2022/03/01 10:37:36;;;;;;;5.28;4.45;;;4.60;28.00;;;;;;4999412;28;20237;-71
2022/03/01 10:40:12;;;;;;;9.30;6.30;;;4.80;28.20;;;;;;4995980;28;20202;-70
2022/03/01 10:42:41;;;;;;;7.38;5.35;;;4.80;27.60;;;;;;4996252;28;20206;-70
2022/03/01 10:45:10;;;;;;;6.20;5.03;;;4.80;27.10;;;;;;4997448;28;20230;-69
2022/03/01 10:47:38;;;;;;;8.65;6.40;;;4.80;27.40;;;;;;4999777;28;20213;-69
2022/03/01 10:50:08;;;;;;;8.10;5.15;;;4.80;27.30;;;;;;5001304;28;20282;-69
2022/03/01 10:52:36;;;;;;;7.43;5.97;;;4.90;27.40;;;;;;5002465;28;20187;-69
2022/03/01 10:55:05;;;;;;;4.82;4.43;;;4.80;27.10;;;;;;5000318;28;20294;-69
2022/03/01 10:57:32;;;;;;;7.63;5.47;;;4.70;27.20;;;;;;4995055;28;20244;-68
2022/03/01 10:59:59;;;;;;;5.75;4.38;;;4.70;27.30;;;;;;4995525;28;20289;-68
2022/03/01 11:02:27;;;;;;;4.40;4.00;;;4.80;27.50;;;;;;4995272;28;20289;-69
2022/03/01 11:04:54;;;;;;;7.55;5.82;;;4.80;27.20;;;;;;4995340;28;20246;-68
2022/03/01 11:07:21;;;;;;;6.65;5.55;;;4.80;27.10;;;;;;4994417;28;20206;-69
2022/03/01 11:09:48;;;;;;;5.78;4.90;;;4.70;26.90;;;;;;4994544;28;20265;-69
2022/03/01 11:12:21;;;;;;;8.00;4.63;;;4.70;27.00;;;;;;4993946;28;20691;-68
2022/03/01 11:14:57;;;;;;;5.38;4.85;;;4.70;27.00;;;;;;4994386;28;20285;-68
2022/03/01 11:17:40;;;;;;;4.80;4.40;;;4.70;25.40;;;;;;4994444;28;20202;-68
2022/03/01 11:20:10;;;;;;;4.40;3.83;;;4.60;25.40;;;;;;4994136;28;20282;-68
2022/03/01 11:22:44;;;;;;;4.15;3.40;;;4.70;25.50;;;;;;4994676;28;20285;-69
2022/03/01 11:25:17;;;;;;;4.13;3.75;;;4.70;25.60;;;;;;4994065;28;20255;-69
2022/03/01 11:27:46;;;;;;;8.27;4.30;;;4.80;25.90;;;;;;4993725;28;20282;-69
2022/03/01 11:30:15;;;;;;;6.68;4.90;;;4.80;25.40;;;;;;4994004;28;20183;-68
2022/03/01 11:32:45;;;;;;;6.90;4.95;;;4.80;24.10;;;;;;4993698;28;20202;-69
2022/03/01 11:35:20;;;;;;;4.47;4.05;;;4.70;23.90;;;;;;4993968;28;20305;-69
2022/03/01 11:37:58;;;;;;;4.10;3.75;;;4.70;23.70;;;;;;4993509;28;20569;-69
2022/03/01 11:40:26;;;;;;;6.95;4.45;;;4.70;24.10;;;;;;4994062;28;20197;-69
2022/03/01 11:42:53;;;;;;;4.63;4.05;;;4.70;24.00;;;;;;4993591;28;20729;-68
2022/03/01 11:45:20;;;;;;;4.93;4.00;;;4.70;24.00;;;;;;4993714;28;20222;-69
2022/03/01 11:47:48;;;;;;;4.13;3.55;;;4.70;24.00;;;;;;4993906;28;20289;-69
2022/03/01 11:50:17;;;;;;;3.92;3.55;;;4.70;23.80;;;;;;4994022;28;20213;-69
2022/03/01 11:52:56;;;;;;;4.50;3.85;;;4.80;24.20;;;;;;4993672;28;20249;-69
2022/03/01 11:55:24;;;;;;;3.17;2.88;;;4.90;23.20;;;;;;4993541;28;20655;-70
2022/03/01 11:57:52;;;;;;;3.22;2.92;;;4.90;22.80;;;;;;4993899;28;20303;-70
2022/03/01 12:00:25;;;;;;;3.97;3.25;;;5.00;22.60;;;;;;4994077;28;20199;-70
2022/03/01 12:02:53;;;;;;;5.93;5.07;;;5.10;22.60;;;;;;4994294;28;20219;-70
2022/03/01 12:05:23;;;;;;;5.45;4.32;;;5.00;22.00;;;;;;4994314;28;20222;-70
2022/03/01 12:07:51;;;;;;;4.28;3.88;;;5.00;22.70;;;;;;4994370;28;20198;-70
2022/03/01 12:10:22;;;;;;;3.63;3.33;;;5.00;22.30;;;;;;4997643;28;20212;-70
2022/03/01 12:12:51;;;;;;;6.10;3.80;;;5.10;22.70;;;;;;4997430;28;20234;-70
2022/03/01 12:15:28;;;;;;;4.40;3.70;;;5.10;23.20;;;;;;4997210;28;20223;-72
2022/03/01 12:17:57;;;;;;;4.28;3.88;;;5.10;23.10;;;;;;4997419;28;20186;-69
2022/03/01 12:20:24;;;;;;;3.58;3.35;;;5.20;22.90;;;;;;4996875;28;20728;-69
2022/03/01 12:22:56;;;;;;;3.42;3.15;;;5.30;22.50;;;;;;4997517;28;20341;-70
2022/03/01 12:25:24;;;;;;;6.28;3.70;;;5.30;22.00;;;;;;4997044;28;20219;-70
2022/03/01 12:27:51;;;;;;;4.15;3.70;;;5.40;21.40;;;;;;4996682;28;20208;-70
2022/03/01 12:30:21;;;;;;;3.58;3.30;;;5.50;21.20;;;;;;4996789;28;20802;-69
2022/03/01 12:32:52;;;;;;;3.15;2.95;;;5.50;21.10;;;;;;4996512;28;20209;-69
2022/03/01 12:35:21;;;;;;;2.88;2.67;;;5.70;21.50;;;;;;4996622;28;20230;-69
2022/03/01 12:37:48;;;;;;;3.17;2.95;;;5.80;21.30;;;;;;4996999;28;20293;-72
2022/03/01 12:40:25;;;;;;;3.08;2.92;;;5.90;21.00;;;;;;4996682;28;20209;-72
2022/03/01 12:43:00;;;;;;;3.05;2.80;;;6.00;21.00;;;;;;4996592;28;20195;-72
2022/03/01 12:45:31;;;;;;;3.50;3.20;;;6.10;20.50;;;;;;4996382;28;20214;-72
2022/03/01 12:47:58;;;;;;;4.88;2.90;;;6.20;20.30;;;;;;4996556;28;20249;-72
2022/03/01 12:50:26;;;;;;;2.70;2.47;;;6.30;20.40;;;;;;4996282;28;20202;-73
2022/03/01 12:52:55;;;;;;;3.65;3.35;;;6.40;20.50;;;;;;4996526;28;20293;-72
2022/03/01 12:55:22;;;;;;;4.78;3.47;;;6.50;20.20;;;;;;4996261;28;20226;-72
2022/03/01 12:57:49;;;;;;;5.40;3.83;;;6.50;20.20;;;;;;4995918;28;20293;-72
2022/03/01 13:00:17;;;;;;;4.28;3.70;;;6.50;20.20;;;;;;4996556;28;20212;-72
2022/03/01 13:02:56;;;;;;;5.68;4.45;;;6.60;20.20;;;;;;4996247;28;20290;-72
2022/03/01 13:05:27;;;;;;;4.95;3.58;;;6.50;20.10;;;;;;4996336;28;20226;-72
2022/03/01 13:07:54;;;;;;;5.00;4.00;;;6.50;20.10;;;;;;4996301;28;20182;-72
2022/03/01 13:10:32;;;;;;;3.97;3.58;;;6.60;20.20;;;;;;4995832;28;20202;-72
2022/03/01 13:13:00;;;;;;;3.60;3.30;;;6.60;20.20;;;;;;4996176;28;20218;-72
2022/03/01 13:15:28;;;;;;;3.38;3.08;;;6.60;19.90;;;;;;4995451;28;20769;-72
2022/03/01 13:17:57;;;;;;;2.58;2.38;;;6.60;20.20;;;;;;4996081;28;20202;-72
2022/03/01 13:20:26;;;;;;;2.60;2.50;;;6.70;20.20;;;;;;4995281;28;20213;-72
2022/03/01 13:23:00;;;;;;;4.95;3.28;;;6.70;20.20;;;;;;4995995;28;20211;-72
2022/03/01 13:25:27;;;;;;;2.55;2.45;;;6.80;20.30;;;;;;4995944;28;20214;-72
2022/03/01 13:27:54;;;;;;;2.65;2.45;;;6.90;20.40;;;;;;4995961;28;20265;-72
2022/03/01 13:30:25;;;;;;;2.45;2.25;;;7.00;20.40;;;;;;4995793;28;20210;-72
2022/03/01 13:33:06;;;;;;;3.75;3.45;;;7.00;20.40;;;;;;4995292;28;20641;-73
2022/03/01 13:35:36;;;;;;;5.55;3.55;;;7.00;19.70;;;;;;4996063;28;20229;-73
2022/03/01 13:38:05;;;;;;;3.58;3.28;;;7.00;20.00;;;;;;4996073;28;20209;-73
2022/03/01 13:40:32;;;;;;;2.80;2.60;;;7.00;19.80;;;;;;4995496;28;20388;-72
2022/03/01 13:43:08;;;;;;;2.40;2.30;;;7.10;20.20;;;;;;4995288;28;20680;-71
2022/03/01 13:45:36;;;;;;;2.33;2.22;;;7.10;20.00;;;;;;4995450;28;20286;-71
2022/03/01 13:48:11;;;;;;;1.77;1.70;;;7.20;19.50;;;;;;4995388;28;20202;-72
2022/03/01 13:50:40;;;;;;;2.13;2.03;;;7.20;19.50;;;;;;4995503;28;20304;-71
2022/03/01 13:53:16;;;;;;;3.00;2.78;;;7.20;19.50;;;;;;4995433;28;20613;-71
2022/03/01 13:55:44;;;;;;;2.90;2.67;;;7.30;19.70;;;;;;4994941;28;20543;-71
2022/03/01 13:58:15;;;;;;;2.58;2.38;;;7.30;19.80;;;;;;4996104;28;20202;-71
2022/03/01 14:00:44;;;;;;;2.17;2.08;;;7.40;19.90;;;;;;4995365;28;20191;-71
2022/03/01 14:03:15;;;;;;;3.15;2.95;;;7.40;20.10;;;;;;4995672;28;20260;-72
2022/03/01 14:05:53;;;;;;;2.50;2.30;;;7.50;19.50;;;;;;4996252;28;20681;-71
2022/03/01 14:08:20;;;;;;;2.60;2.00;;;7.50;18.70;;;;;;4995847;28;20185;-72
2022/03/01 14:10:51;;;;;;;2.05;1.95;;;7.60;18.70;;;;;;4997518;28;20202;-74
2022/03/01 14:13:21;;;;;;;2.10;1.98;;;7.70;18.10;;;;;;4998796;28;20290;-70
2022/03/01 14:15:51;;;;;;;2.28;2.17;;;7.80;18.20;;;;;;4997822;28;20318;-71
2022/03/01 14:18:19;;;;;;;2.40;2.30;;;7.80;18.20;;;;;;4998335;28;20199;-72
2022/03/01 14:20:49;;;;;;;2.40;2.30;;;7.90;18.60;;;;;;4998733;28;20299;-71
2022/03/01 14:23:19;;;;;;;3.05;2.85;;;7.90;18.90;;;;;;4998292;28;20554;-70
2022/03/01 14:25:46;;;;;;;2.72;2.50;;;8.00;19.30;;;;;;4997182;28;20202;-72
2022/03/01 14:28:13;;;;;;;2.42;2.33;;;7.90;19.50;;;;;;4996819;28;20297;-71
2022/03/01 14:30:43;;;;;;;2.40;2.30;;;7.90;19.70;;;;;;4998937;28;20203;-72
2022/03/01 14:33:10;;;;;;;3.35;3.00;;;7.90;19.60;;;;;;4997565;28;20213;-71
2022/03/01 14:35:38;;;;;;;3.00;2.80;;;7.90;19.00;;;;;;4999461;28;20573;-72
2022/03/01 14:38:07;;;;;;;3.25;2.67;;;7.90;18.80;;;;;;4997739;28;20262;-73
2022/03/01 14:40:36;;;;;;;2.80;2.60;;;7.90;19.00;;;;;;4997789;28;20202;-73
2022/03/01 14:43:04;;;;;;;2.35;2.25;;;7.80;18.90;;;;;;4998091;28;20574;-73
2022/03/01 14:45:31;;;;;;;2.17;2.08;;;7.80;19.10;;;;;;4997783;28;20229;-73
2022/03/01 14:47:58;;;;;;;2.47;2.28;;;7.80;18.40;;;;;;4998226;28;20589;-73
2022/03/01 14:50:26;;;;;;;1.73;1.73;;;7.80;18.40;;;;;;4998303;28;20206;-73
2022/03/01 14:52:53;;;;;;;1.75;1.65;;;7.70;18.40;;;;;;4997911;28;20213;-73
2022/03/01 14:55:22;;;;;;;1.67;1.58;;;7.70;18.30;;;;;;4998033;28;20222;-73
2022/03/01 14:57:49;;;;;;;1.23;1.20;;;7.60;18.60;;;;;;4999077;28;20321;-73
2022/03/01 15:00:17;;;;;;;1.48;1.48;;;7.50;18.20;;;;;;4996020;28;20529;-73
2022/03/01 15:02:45;;;;;;;1.15;1.15;;;7.50;18.30;;;;;;4998271;28;20207;-73
2022/03/01 15:05:13;;;;;;;1.13;1.13;;;7.40;18.40;;;;;;4998607;28;20265;-72
2022/03/01 15:07:41;;;;;;;1.20;1.20;;;7.30;18.30;;;;;;4998220;28;20241;-73
2022/03/01 15:10:10;;;;;;;0.75;0.75;;;7.20;18.70;;;;;;4998779;28;20206;-72
2022/03/01 15:12:40;;;;;;;0.95;0.95;;;7.10;19.40;;;;;;4998540;28;20306;-73
2022/03/01 15:15:09;;;;;;;1.10;1.10;;;7.00;19.80;;;;;;4997992;28;20285;-73
2022/03/01 15:17:36;;;;;;;1.10;1.10;;;6.80;20.30;;;;;;4998058;28;20268;-73
2022/03/01 15:20:05;;;;;;;0.80;0.80;;;6.70;20.70;;;;;;4993932;28;20206;-73
2022/03/01 15:22:32;;;;;;;0.85;0.85;;;6.50;21.20;;;;;;4993948;28;20247;-73
2022/03/01 15:24:59;;;;;;;0.95;0.95;;;6.40;21.80;;;;;;4993482;28;20313;-72
2022/03/01 15:27:26;;;;;;;1.25;1.23;;;6.30;22.10;;;;;;4993943;28;20293;-72
2022/03/01 15:29:54;;;;;;;1.58;1.58;;;6.20;22.90;;;;;;4993505;28;20205;-74
2022/03/01 15:32:22;;;;;;;2.22;2.03;;;6.10;24.00;;;;;;4993577;28;20661;-74
2022/03/01 15:34:49;;;;;;;2.13;2.10;;;6.10;24.80;;;;;;4993943;28;20223;-74
2022/03/01 15:37:16;;;;;;;2.25;2.15;;;6.10;25.20;;;;;;4993464;28;20804;-74
2022/03/01 15:39:43;;;;;;;1.77;1.67;;;6.10;25.40;;;;;;4993670;28;20294;-74
2022/03/01 15:42:12;;;;;;;2.22;2.13;;;6.10;25.50;;;;;;4993449;28;20207;-74
2022/03/01 15:44:39;;;;;;;2.67;2.47;;;6.10;25.70;;;;;;4997001;28;20224;-74
2022/03/01 15:47:08;;;;;;;2.47;2.33;;;6.10;25.90;;;;;;4997698;28;20202;-74
2022/03/01 15:49:37;;;;;;;2.10;1.95;;;6.20;26.00;;;;;;4997599;28;20202;-74
2022/03/01 15:52:06;;;;;;;2.00;1.90;;;6.20;26.00;;;;;;4997872;28;20206;-73
2022/03/01 15:54:34;;;;;;;1.92;1.90;;;6.10;26.20;;;;;;4997459;28;20309;-74
2022/03/01 15:57:01;;;;;;;1.95;1.77;;;6.10;26.20;;;;;;4997103;28;20294;-74
2022/03/01 15:59:28;;;;;;;1.70;1.70;;;6.10;26.30;;;;;;4997368;28;20298;-74
2022/03/01 16:01:55;;;;;;;2.00;1.90;;;6.10;26.50;;;;;;4997458;28;20213;-74
2022/03/01 16:04:23;;;;;;;1.50;1.50;;;6.00;26.80;;;;;;4998000;28;20273;-74
2022/03/01 16:06:50;;;;;;;1.80;1.70;;;6.00;27.00;;;;;;4997514;28;20203;-73
2022/03/01 16:09:17;;;;;;;1.38;1.38;;;6.00;27.50;;;;;;4997467;28;20229;-74
2022/03/01 16:11:44;;;;;;;1.63;1.55;;;5.90;27.10;;;;;;4997541;28;20293;-74
2022/03/01 16:14:11;;;;;;;1.65;1.55;;;5.90;27.70;;;;;;4997051;28;20601;-76
2022/03/01 16:16:39;;;;;;;1.52;1.52;;;5.90;28.10;;;;;;4996917;28;20223;-75
2022/03/01 16:19:07;;;;;;;1.20;1.10;;;5.80;28.10;;;;;;4997298;28;20544;-75
2022/03/01 16:21:36;;;;;;;1.20;1.20;;;5.70;28.20;;;;;;4997339;28;20207;-75
2022/03/01 16:24:04;;;;;;;1.42;1.42;;;5.70;28.40;;;;;;4997229;28;20222;-75
2022/03/01 16:26:31;;;;;;;1.20;1.20;;;5.60;28.30;;;;;;4997027;28;20202;-75
2022/03/01 16:28:59;;;;;;;1.20;1.20;;;5.50;28.80;;;;;;4997179;28;20202;-75
2022/03/01 16:31:27;;;;;;;1.23;1.23;;;5.40;29.20;;;;;;4996788;28;20566;-75
2022/03/01 16:33:55;;;;;;;1.48;1.48;;;5.20;29.60;;;;;;4996729;28;20226;-74
2022/03/01 16:36:23;;;;;;;1.35;1.35;;;5.10;30.00;;;;;;4996916;28;20218;-74
2022/03/01 16:38:52;;;;;;;1.80;1.70;;;5.00;30.20;;;;;;4996976;28;20290;-74
2022/03/01 16:41:19;;;;;;;1.42;1.42;;;4.80;30.80;;;;;;4996872;28;20294;-74
2022/03/01 16:43:46;;;;;;;1.60;1.50;;;4.60;30.90;;;;;;4996880;28;20219;-74
2022/03/01 16:46:13;;;;;;;2.00;1.90;;;4.50;31.30;;;;;;4996968;28;20205;-74
2022/03/01 16:48:42;;;;;;;1.50;1.50;;;4.30;31.60;;;;;;4997396;28;20301;-72
2022/03/01 16:51:09;;;;;;;1.98;1.88;;;4.20;32.10;;;;;;4996790;28;20206;-72
2022/03/01 16:53:36;;;;;;;1.67;1.58;;;4.10;32.40;;;;;;4996356;28;20223;-72
2022/03/01 16:56:04;;;;;;;1.75;1.70;;;3.90;32.60;;;;;;4995309;28;20408;-71
2022/03/01 16:58:31;;;;;;;1.60;1.50;;;3.80;32.80;;;;;;4996465;28;20199;-71
2022/03/01 17:00:59;;;;;;;1.70;1.60;;;3.70;33.40;;;;;;4996435;28;20213;-71
2022/03/01 17:03:25;;;;;;;1.30;1.30;;;3.60;33.80;;;;;;4996583;28;20207;-72
2022/03/01 17:05:52;;;;;;;1.80;1.80;;;3.50;34.20;;;;;;4996227;28;20234;-71
2022/03/01 17:08:20;;;;;;;1.83;1.73;;;3.40;34.30;;;;;;4996451;28;20692;-71
2022/03/01 17:10:47;;;;;;;2.00;1.90;;;3.30;34.70;;;;;;4998403;28;20198;-71
2022/03/01 17:13:16;;;;;;;1.80;1.70;;;3.20;34.70;;;;;;4995868;28;20655;-71
2022/03/01 17:15:43;;;;;;;1.90;1.80;;;3.10;34.70;;;;;;4995820;28;20244;-71
2022/03/01 17:18:10;;;;;;;1.55;1.55;;;3.00;36.00;;;;;;4996148;28;20199;-71
2022/03/01 17:20:38;;;;;;;1.42;1.42;;;2.90;36.40;;;;;;4996140;28;20206;-71
2022/03/01 17:23:06;;;;;;;1.90;1.80;;;2.80;37.50;;;;;;4995695;28;20573;-71
2022/03/01 17:25:37;;;;;;;2.10;2.00;;;2.70;38.10;;;;;;4996022;28;20222;-71
2022/03/01 17:28:05;;;;;;;1.83;1.73;;;2.60;38.60;;;;;;4995656;28;20549;-70
2022/03/01 17:30:35;;;;;;;1.73;1.70;;;2.60;38.80;;;;;;4996026;28;20241;-69
2022/03/01 17:33:02;;;;;;;1.90;1.80;;;2.50;39.10;;;;;;4995986;28;20285;-69
2022/03/01 17:35:30;;;;;;;1.55;1.55;;;2.40;40.00;;;;;;4995840;28;20314;-68
2022/03/01 17:37:57;;;;;;;1.98;1.88;;;2.40;41.30;;;;;;4995694;28;20230;-68
2022/03/01 17:40:25;;;;;;;1.90;1.80;;;2.40;42.00;;;;;;4995682;28;20202;-68
2022/03/01 17:42:52;;;;;;;2.03;1.92;;;2.30;42.20;;;;;;4995661;28;20316;-68
2022/03/01 17:45:20;;;;;;;2.00;1.90;;;2.20;43.30;;;;;;4995501;28;20649;-68
2022/03/01 17:47:51;;;;;;;2.15;2.05;;;2.10;43.50;;;;;;4995562;28;20198;-68
2022/03/01 17:50:18;;;;;;;2.30;2.20;;;2.10;44.00;;;;;;4995551;28;20221;-68
2022/03/01 17:52:45;;;;;;;1.77;1.70;;;2.00;44.30;;;;;;4995164;28;20692;-68
2022/03/01 17:55:12;;;;;;;2.38;2.28;;;1.90;44.80;;;;;;4995164;28;20226;-68
2022/03/01 17:57:39;;;;;;;2.15;2.05;;;1.80;45.20;;;;;;4995244;28;20229;-68
2022/03/01 18:00:09;;;;;;;1.73;1.70;;;1.80;45.40;;;;;;4995339;28;20210;-68
2022/03/01 18:02:36;;;;;;;1.80;1.80;;;1.70;45.70;;;;;;4994960;28;20197;-67
2022/03/01 18:05:05;;;;;;;1.75;1.75;;;1.60;46.00;;;;;;4994910;28;20313;-68
2022/03/01 18:07:32;;;;;;;1.80;1.80;;;1.50;46.40;;;;;;4995063;28;20230;-67
2022/03/01 18:09:59;;;;;;;2.08;1.98;;;1.50;46.90;;;;;;4994766;28;20210;-67
2022/03/01 18:12:26;;;;;;;1.88;1.88;;;1.40;47.30;;;;;;4995090;28;20212;-66
2022/03/01 18:14:53;;;;;;;2.22;2.03;;;1.30;47.70;;;;;;4994841;28;20237;-68
2022/03/01 18:17:21;;;;;;;2.30;2.20;;;1.20;48.40;;;;;;4994817;28;20233;-66
2022/03/01 18:19:48;;;;;;;2.08;1.98;;;1.10;49.00;;;;;;4994859;28;20202;-67
2022/03/01 18:22:16;;;;;;;2.22;2.08;;;1.10;49.80;;;;;;4995060;28;20194;-67
2022/03/01 18:24:44;;;;;;;1.98;1.90;;;1.00;50.50;;;;;;4994540;28;20246;-67
2022/03/01 18:27:11;;;;;;;1.95;1.92;;;1.00;51.30;;;;;;4994832;28;20572;-67
2022/03/01 18:29:37;;;;;;;2.65;2.50;;;0.90;51.80;;;;;;4994701;28;20224;-67
2022/03/01 18:32:05;;;;;;;2.35;2.17;;;0.80;52.10;;;;;;4994399;28;20765;-67
2022/03/01 18:34:32;;;;;;;2.40;1.90;;;0.80;52.50;;;;;;4994562;28;20579;-67
2022/03/01 18:36:59;;;;;;;2.35;2.22;;;0.70;53.50;;;;;;4994560;28;20257;-67
2022/03/01 18:39:27;;;;;;;2.67;2.58;;;0.70;53.50;;;;;;4994526;28;20314;-67
2022/03/01 18:41:55;;;;;;;2.58;2.40;;;0.70;53.40;;;;;;4994416;28;20207;-67
2022/03/01 18:44:22;;;;;;;2.40;2.30;;;0.60;53.50;;;;;;4993989;28;20218;-68
2022/03/01 18:46:49;;;;;;;2.40;2.30;;;0.60;53.80;;;;;;4994444;28;20206;-67
2022/03/01 18:49:16;;;;;;;2.45;2.35;;;0.50;54.30;;;;;;4994477;28;20294;-67
2022/03/01 18:51:42;;;;;;;2.45;2.35;;;0.50;54.50;;;;;;4994524;28;20203;-67
2022/03/01 18:54:09;;;;;;;2.08;1.98;;;0.40;54.00;;;;;;4994378;28;20222;-67
2022/03/01 18:56:38;;;;;;;2.15;2.05;;;0.40;53.70;;;;;;4994502;28;20317;-67
2022/03/01 18:59:07;;;;;;;1.80;1.73;;;0.40;53.80;;;;;;4994604;28;20203;-68
2022/03/01 19:01:33;;;;;;;2.13;2.03;;;0.40;53.70;;;;;;4994480;28;20290;-68
2022/03/01 19:04:00;;;;;;;2.10;2.00;;;0.30;53.50;;;;;;4993962;28;20309;-69
2022/03/01 19:06:27;;;;;;;2.03;1.92;;;0.30;53.80;;;;;;4994073;28;20209;-69
2022/03/01 19:08:56;;;;;;;2.10;1.95;;;0.30;54.30;;;;;;4994362;28;20219;-70
2022/03/01 19:11:24;;;;;;;2.03;1.92;;;0.20;54.70;;;;;;4994889;28;20285;-70
2022/03/01 19:13:53;;;;;;;2.00;1.90;;;0.20;54.80;;;;;;4994391;28;20313;-71